createdAt,value
2018-07-27T00:01:08.300Z,8.83
2018-07-27T00:03:37.404Z,6.45
2018-07-27T00:06:06.862Z,6.05
2018-07-27T00:08:36.372Z,8.20
2018-07-27T00:11:05.600Z,9.43
2018-07-27T00:13:34.610Z,8.20
2018-07-27T00:16:03.700Z,9.43
2018-07-27T00:18:32.801Z,11.33
2018-07-27T00:21:01.891Z,11.12
2018-07-27T00:23:31.001Z,10.10
2018-07-27T00:26:00.085Z,11.25
2018-07-27T00:28:29.501Z,7.58
2018-07-27T00:30:58.680Z,13.10
2018-07-27T00:33:27.780Z,9.38
2018-07-27T00:35:56.881Z,8.35
2018-07-27T00:38:25.971Z,7.65
2018-07-27T00:40:55.065Z,6.17
2018-07-27T00:43:24.160Z,9.25
2018-07-27T00:45:53.289Z,9.15
2018-07-27T00:48:22.350Z,5.85
2018-07-27T00:50:51.451Z,7.75
2018-07-27T00:53:20.882Z,10.23
2018-07-27T00:55:50.375Z,10.88
2018-07-27T00:58:19.873Z,6.92
2018-07-27T01:00:49.064Z,9.70
2018-07-27T01:03:18.165Z,7.78
2018-07-27T01:05:47.244Z,8.60
2018-07-27T01:08:16.712Z,6.95
2018-07-27T01:10:45.864Z,13.05
2018-07-27T01:13:14.945Z,7.83
2018-07-27T01:15:44.044Z,7.58
2018-07-27T01:18:13.136Z,8.75
2018-07-27T01:20:42.136Z,8.23
2018-07-27T01:23:11.337Z,6.85
2018-07-27T01:25:40.420Z,6.70
2018-07-27T01:28:09.891Z,6.78
2018-07-27T01:30:39.393Z,10.23
2018-07-27T01:33:08.580Z,7.35
2018-07-27T01:35:37.629Z,7.28
2018-07-27T01:38:07.136Z,12.18
2018-07-27T01:40:35.969Z,9.28
2018-07-27T01:43:05.214Z,10.88
2018-07-27T01:45:34.421Z,7.47
2018-07-27T01:48:03.513Z,7.65
2018-07-27T01:50:32.665Z,10.10
2018-07-27T01:53:01.718Z,11.12
2018-07-27T01:55:30.810Z,7.95
2018-07-27T01:57:59.896Z,7.97
2018-07-27T02:00:28.997Z,7.28
2018-07-27T02:02:58.094Z,9.95
2018-07-27T02:05:27.189Z,10.82
2018-07-27T02:07:56.708Z,8.30
2018-07-27T02:10:25.792Z,10.93
2018-07-27T02:12:54.901Z,8.68
2018-07-27T02:15:23.986Z,7.62
2018-07-27T02:17:53.364Z,9.58
2018-07-27T02:20:22.584Z,8.75
2018-07-27T02:22:51.681Z,13.62
2018-07-27T02:25:21.045Z,9.53
2018-07-27T02:27:49.820Z,11.97
2018-07-27T02:30:18.966Z,7.72
2018-07-27T02:32:48.062Z,8.10
2018-07-27T02:35:17.164Z,10.10
2018-07-27T02:37:46.249Z,6.67
2018-07-27T02:40:15.345Z,10.45
2018-07-27T02:42:44.485Z,7.53
2018-07-27T02:45:13.797Z,10.65
2018-07-27T02:47:47.545Z,10.23
2018-07-27T02:50:16.645Z,9.50
2018-07-27T02:52:46.106Z,10.60
2018-07-27T02:55:15.097Z,7.90
2018-07-27T02:57:44.349Z,14.43
2018-07-27T03:00:13.434Z,7.30
2018-07-27T03:02:42.532Z,12.68
2018-07-27T03:05:11.782Z,16.52
2018-07-27T03:07:40.721Z,12.23
2018-07-27T03:10:09.819Z,9.98
2018-07-27T03:12:38.673Z,12.82
2018-07-27T03:15:08.013Z,11.50
2018-07-27T03:17:37.445Z,13.43
2018-07-27T03:20:07.392Z,9.45
2018-07-27T03:22:36.568Z,10.45
2018-07-27T03:25:05.889Z,12.33
2018-07-27T03:27:35.133Z,10.23
2018-07-27T03:30:04.234Z,18.07
2018-07-27T03:32:33.325Z,11.60
2018-07-27T03:35:02.427Z,15.05
2018-07-27T03:37:31.510Z,12.10
2018-07-27T03:40:00.929Z,12.35
2018-07-27T03:42:30.120Z,10.05
2018-07-27T03:44:59.224Z,12.10
2018-07-27T03:47:28.305Z,17.25
2018-07-27T03:49:57.396Z,11.15
2018-07-27T03:52:26.497Z,10.90
2018-07-27T03:54:55.597Z,11.35
2018-07-27T03:57:25.012Z,13.55
2018-07-27T03:59:54.213Z,15.13
2018-07-27T04:02:23.371Z,16.67
2018-07-27T04:04:52.393Z,12.15
2018-07-27T04:07:21.520Z,16.45
2018-07-27T04:09:50.580Z,10.90
2018-07-27T04:12:23.420Z,13.78
2018-07-27T04:14:53.255Z,12.05
2018-07-27T04:17:22.365Z,15.83
2018-07-27T04:19:52.653Z,11.70
2018-07-27T04:22:22.273Z,14.78
2018-07-27T04:24:51.978Z,10.18
2018-07-27T04:27:21.065Z,11.28
2018-07-27T04:29:50.308Z,10.58
2018-07-27T04:32:19.725Z,11.75
2018-07-27T04:34:48.905Z,11.97
2018-07-27T04:37:18.009Z,18.40
2018-07-27T04:39:47.099Z,15.78
2018-07-27T04:42:16.209Z,15.25
2018-07-27T04:44:45.705Z,13.00
2018-07-27T04:47:14.805Z,9.83
2018-07-27T04:49:43.929Z,11.73
2018-07-27T04:52:12.989Z,9.15
2018-07-27T04:54:42.294Z,9.90
2018-07-27T04:57:11.171Z,12.73
2018-07-27T04:59:40.281Z,10.75
2018-07-27T05:02:09.372Z,11.40
2018-07-27T05:04:38.472Z,9.35
2018-07-27T05:07:07.833Z,8.55
2018-07-27T05:09:37.072Z,11.12
2018-07-27T05:12:06.157Z,12.35
2018-07-27T05:14:35.265Z,11.18
2018-07-27T05:17:04.074Z,8.33
2018-07-27T05:19:33.446Z,8.60
2018-07-27T05:22:02.284Z,8.00
2018-07-27T05:24:31.644Z,8.48
2018-07-27T05:27:01.103Z,8.80
2018-07-27T05:29:30.265Z,7.83
2018-07-27T05:31:59.333Z,10.40
2018-07-27T05:34:28.499Z,7.87
2018-07-27T05:36:57.710Z,9.23
2018-07-27T05:39:26.629Z,10.30
2018-07-27T05:41:55.708Z,7.87
2018-07-27T05:44:24.947Z,9.28
2018-07-27T05:46:54.269Z,8.60
2018-07-27T05:49:23.421Z,8.20
2018-07-27T05:51:52.873Z,7.60
2018-07-27T05:54:22.014Z,8.40
2018-07-27T05:56:51.117Z,16.77
2018-07-27T05:59:20.218Z,9.35
2018-07-27T06:01:49.310Z,8.28
2018-07-27T06:04:18.021Z,8.88
2018-07-27T06:06:46.822Z,9.05
2018-07-27T06:09:15.777Z,7.22
2018-07-27T06:11:44.861Z,7.37
2018-07-27T06:14:13.969Z,10.60
2018-07-27T06:16:43.060Z,7.05
2018-07-27T06:19:12.150Z,7.65
2018-07-27T06:21:41.617Z,7.22
2018-07-27T06:24:11.135Z,10.72
2018-07-27T06:26:40.265Z,6.60
2018-07-27T06:29:09.062Z,8.05
2018-07-27T06:31:38.414Z,8.90
2018-07-27T06:34:07.557Z,7.45
2018-07-27T06:36:36.652Z,11.35
2018-07-27T06:39:07.473Z,7.53
2018-07-27T06:41:36.480Z,6.95
2018-07-27T06:44:05.575Z,8.93
2018-07-27T06:46:34.669Z,14.05
2018-07-27T06:49:03.753Z,7.12
2018-07-27T06:51:32.855Z,6.42
2018-07-27T06:54:01.961Z,6.37
2018-07-27T06:56:31.370Z,7.33
2018-07-27T06:59:00.563Z,6.37
2018-07-27T07:01:29.657Z,6.95
2018-07-27T07:03:58.741Z,8.33
2018-07-27T07:06:27.849Z,7.37
2018-07-27T07:08:56.527Z,6.90
2018-07-27T07:11:25.627Z,11.67
2018-07-27T07:13:54.769Z,7.80
2018-07-27T07:16:23.813Z,7.20
2018-07-27T07:18:52.917Z,7.33
2018-07-27T07:21:22.013Z,7.53
2018-07-27T07:23:51.468Z,8.53
2018-07-27T07:26:20.613Z,7.33
2018-07-27T07:28:50.046Z,8.33
2018-07-27T07:31:20.021Z,7.03
2018-07-27T07:33:49.493Z,14.97
2018-07-27T07:36:18.993Z,7.50
2018-07-27T07:38:48.497Z,7.53
2018-07-27T07:41:17.976Z,12.43
2018-07-27T07:43:47.514Z,8.90
2018-07-27T07:46:17.017Z,6.90
2018-07-27T07:48:46.415Z,6.50
2018-07-27T07:51:15.665Z,7.30
2018-07-27T07:53:44.919Z,8.63
2018-07-27T07:56:14.216Z,8.07
2018-07-27T07:58:43.397Z,7.90
2018-07-27T08:01:12.817Z,9.60
2018-07-27T08:03:41.966Z,7.67
2018-07-27T08:06:11.387Z,11.43
2018-07-27T08:08:40.930Z,8.30
2018-07-27T08:11:10.100Z,8.47
2018-07-27T08:13:38.882Z,6.73
2018-07-27T08:16:07.841Z,8.20
2018-07-27T08:18:36.937Z,13.30
2018-07-27T08:21:06.041Z,9.33
2018-07-27T08:23:35.181Z,11.17
2018-07-27T08:26:41.089Z,9.17
2018-07-27T08:29:11.068Z,9.27
2018-07-27T08:31:41.747Z,8.20
2018-07-27T08:34:11.276Z,10.50
2018-07-27T08:36:40.349Z,9.60
2018-07-27T08:39:09.713Z,11.17
2018-07-27T08:41:38.941Z,9.20
2018-07-27T08:44:08.501Z,10.00
2018-07-27T08:46:37.613Z,8.40
2018-07-27T08:49:06.249Z,10.20
2018-07-27T08:51:35.653Z,15.40
2018-07-27T08:54:04.428Z,8.47
2018-07-27T08:56:33.526Z,9.13
2018-07-27T08:59:02.803Z,11.43
2018-07-27T09:01:31.718Z,6.60
2018-07-27T09:04:00.847Z,6.80
2018-07-27T09:06:29.906Z,8.27
2018-07-27T09:08:59.040Z,7.47
2018-07-27T09:11:28.096Z,7.93
2018-07-27T09:13:57.196Z,9.80
2018-07-27T09:16:26.623Z,8.03
2018-07-27T09:18:55.797Z,9.00
2018-07-27T09:21:24.906Z,7.20
2018-07-27T09:23:54.345Z,9.37
2018-07-27T09:26:23.853Z,5.60
2018-07-27T09:28:53.316Z,10.17
2018-07-27T09:31:22.505Z,4.20
2018-07-27T09:33:51.597Z,4.57
2018-07-27T09:36:20.697Z,12.10
2018-07-27T09:38:49.807Z,4.77
2018-07-27T09:41:18.897Z,6.10
2018-07-27T09:43:47.984Z,6.13
2018-07-27T09:46:17.081Z,6.70
2018-07-27T09:48:51.009Z,6.20
2018-07-27T09:51:20.186Z,6.93
2018-07-27T09:53:49.285Z,12.27
2018-07-27T09:56:18.149Z,11.30
2018-07-27T09:58:47.064Z,6.20
2018-07-27T10:01:22.256Z,6.83
2018-07-27T10:03:51.860Z,7.13
2018-07-27T10:06:20.929Z,5.97
2018-07-27T10:08:49.716Z,7.27
2018-07-27T10:11:19.048Z,5.03
2018-07-27T10:13:48.189Z,6.20
2018-07-27T10:16:17.289Z,6.37
2018-07-27T10:18:46.425Z,8.50
2018-07-27T10:21:15.477Z,5.00
2018-07-27T10:23:44.577Z,4.90
2018-07-27T10:26:13.668Z,4.90
2018-07-27T10:28:42.765Z,4.73
2018-07-27T10:31:11.866Z,5.20
2018-07-27T10:33:41.317Z,5.23
2018-07-27T10:36:10.468Z,3.83
2018-07-27T10:38:39.613Z,7.07
2018-07-27T10:41:08.653Z,4.40
2018-07-27T10:43:38.011Z,3.77
2018-07-27T10:46:07.613Z,4.43
2018-07-27T10:48:36.785Z,5.80
2018-07-27T10:51:05.853Z,4.30
2018-07-27T10:53:35.313Z,8.83
2018-07-27T10:56:04.457Z,8.03
2018-07-27T10:58:33.553Z,5.87
2018-07-27T11:01:02.650Z,6.27
2018-07-27T11:03:31.745Z,4.60
2018-07-27T11:06:00.721Z,5.20
2018-07-27T11:08:29.941Z,4.17
2018-07-27T11:10:59.429Z,4.60
2018-07-27T11:13:28.536Z,3.83
2018-07-27T11:15:57.629Z,4.17
2018-07-27T11:18:26.729Z,4.80
2018-07-27T11:20:55.825Z,4.70
2018-07-27T11:23:25.244Z,4.47
2018-07-27T11:25:54.429Z,4.60
2018-07-27T11:28:23.521Z,2.97
2018-07-27T11:30:52.627Z,3.07
2018-07-27T11:33:22.069Z,3.10
2018-07-27T11:35:51.261Z,4.73
2018-07-27T11:38:20.319Z,2.90
2018-07-27T11:40:49.412Z,5.03
2018-07-27T11:43:18.505Z,6.00
2018-07-27T11:45:47.601Z,3.83
2018-07-27T11:48:16.961Z,3.10
2018-07-27T11:50:46.201Z,5.37
2018-07-27T11:53:15.011Z,4.43
2018-07-27T11:55:43.985Z,2.43
2018-07-27T11:58:13.076Z,2.40
2018-07-27T12:00:42.181Z,2.33
2018-07-27T12:03:11.629Z,5.63
2018-07-27T12:05:40.997Z,2.07
2018-07-27T12:08:09.873Z,1.70
2018-07-27T12:10:38.969Z,1.77
2018-07-27T12:13:08.061Z,1.90
2018-07-27T12:15:37.156Z,1.13
2018-07-27T12:18:06.255Z,1.30
2018-07-27T12:20:35.851Z,2.00
2018-07-27T12:23:04.901Z,1.33
2018-07-27T12:25:33.949Z,1.10
2018-07-27T12:28:03.651Z,1.43
2018-07-27T12:30:32.402Z,1.40
2018-07-27T12:33:01.239Z,2.60
2018-07-27T12:35:30.333Z,0.70
2018-07-27T12:37:59.425Z,0.70
2018-07-27T12:40:28.777Z,1.50
2018-07-27T12:42:58.035Z,1.43
2018-07-27T12:45:27.121Z,0.90
2018-07-27T12:47:56.223Z,0.80
2018-07-27T12:50:25.321Z,2.00
2018-07-27T12:52:54.417Z,0.80
2018-07-27T12:55:23.513Z,2.07
2018-07-27T12:57:52.660Z,2.70
2018-07-27T13:00:21.702Z,0.73
2018-07-27T13:02:50.510Z,1.03
2018-07-27T13:05:19.342Z,0.77
2018-07-27T13:07:48.937Z,1.30
2018-07-27T13:10:18.082Z,1.20
2018-07-27T13:12:47.177Z,0.50
2018-07-27T13:15:16.686Z,2.23
2018-07-27T13:17:45.777Z,0.80
2018-07-27T13:20:15.144Z,0.83
2018-07-27T13:22:44.381Z,0.40
2018-07-27T13:25:13.487Z,1.23
2018-07-27T13:27:42.570Z,1.27
2018-07-27T13:30:11.877Z,0.40
2018-07-27T13:32:40.766Z,1.07
2018-07-27T13:35:09.905Z,2.40
2018-07-27T13:37:38.981Z,0.63
2018-07-27T13:40:08.382Z,0.87
2018-07-27T13:42:37.852Z,1.33
2018-07-27T13:45:07.379Z,1.50
2018-07-27T13:47:36.749Z,0.70
2018-07-27T13:50:06.023Z,1.37
2018-07-27T13:52:35.169Z,2.10
2018-07-27T13:55:04.621Z,2.60
2018-07-27T13:57:33.780Z,0.80
2018-07-27T14:00:02.866Z,0.83
2018-07-27T14:02:31.756Z,0.90
2018-07-27T14:05:00.649Z,1.50
2018-07-27T14:07:30.141Z,0.87
2018-07-27T14:09:59.250Z,2.80
2018-07-27T14:12:28.481Z,0.90
2018-07-27T14:14:56.993Z,1.33
2018-07-27T14:17:25.849Z,2.53
2018-07-27T14:19:55.210Z,5.30
2018-07-27T14:22:24.675Z,1.10
2018-07-27T14:24:53.825Z,1.10
2018-07-27T14:27:22.918Z,1.03
2018-07-27T14:29:52.075Z,0.90
2018-07-27T14:32:21.109Z,1.20
2018-07-27T14:34:50.205Z,0.87
2018-07-27T14:37:19.301Z,0.67
2018-07-27T14:39:48.401Z,1.03
2018-07-27T14:42:17.497Z,1.60
2018-07-27T14:44:47.406Z,2.23
2018-07-27T14:47:16.530Z,0.50
2018-07-27T14:49:45.847Z,0.90
2018-07-27T14:52:15.114Z,1.53
2018-07-27T14:54:44.610Z,0.60
2018-07-27T14:57:13.279Z,3.53
2018-07-27T14:59:42.394Z,1.47
2018-07-27T15:02:11.485Z,0.63
2018-07-27T15:04:41.358Z,1.07
2018-07-27T15:07:10.504Z,0.77
2018-07-27T15:09:39.949Z,2.40
2018-07-27T15:12:09.102Z,1.80
2018-07-27T15:14:38.198Z,0.53
2018-07-27T15:17:07.299Z,0.60
2018-07-27T15:19:36.385Z,2.10
2018-07-27T15:22:05.194Z,4.07
2018-07-27T15:24:34.525Z,1.37
2018-07-27T15:27:03.673Z,1.10
2018-07-27T15:29:33.091Z,1.43
2018-07-27T15:32:02.629Z,0.60
2018-07-27T15:34:31.778Z,0.60
2018-07-27T15:37:00.874Z,1.67
2018-07-27T15:39:29.761Z,0.60
2018-07-27T15:41:58.688Z,1.93
2018-07-27T15:44:27.750Z,0.50
2018-07-27T15:46:56.849Z,0.90
2018-07-27T15:49:25.911Z,0.53
2018-07-27T15:51:55.038Z,0.60
2018-07-27T15:54:24.182Z,1.80
2018-07-27T15:56:53.229Z,0.60
2018-07-27T15:59:22.325Z,1.53
2018-07-27T16:01:51.421Z,3.17
2018-07-27T16:04:20.527Z,1.40
2018-07-27T16:06:50.346Z,4.70
2018-07-27T16:09:19.527Z,1.70
2018-07-27T16:11:48.625Z,4.20
2018-07-27T16:14:17.718Z,2.47
2018-07-27T16:16:46.821Z,5.33
2018-07-27T16:19:15.945Z,2.60
2018-07-27T16:21:45.385Z,6.47
2018-07-27T16:24:14.872Z,5.43
2018-07-27T16:26:43.966Z,3.00
2018-07-27T16:29:13.109Z,7.33
2018-07-27T16:31:42.534Z,3.07
2018-07-27T16:34:12.078Z,3.40
2018-07-27T16:36:41.985Z,3.70
2018-07-27T16:39:11.399Z,6.23
2018-07-27T16:41:40.968Z,2.50
2018-07-27T16:44:10.468Z,4.50
2018-07-27T16:46:40.011Z,3.27
2018-07-27T16:49:08.868Z,4.07
2018-07-27T16:51:37.843Z,5.03
2018-07-27T16:54:07.137Z,4.00
2018-07-27T16:56:36.089Z,5.10
2018-07-27T16:59:05.485Z,3.60
2018-07-27T17:01:34.485Z,3.73
2018-07-27T17:04:03.577Z,4.27
2018-07-27T17:06:33.628Z,6.20
2018-07-27T17:09:02.849Z,5.03
2018-07-27T17:11:31.837Z,5.30
2018-07-27T17:14:00.674Z,3.87
2018-07-27T17:16:29.619Z,4.27
2018-07-27T17:18:58.713Z,6.23
2018-07-27T17:21:28.036Z,4.50
2018-07-27T17:23:56.901Z,4.03
2018-07-27T17:26:26.002Z,3.80
2018-07-27T17:28:55.457Z,7.17
2018-07-27T17:31:24.605Z,4.83
2018-07-27T17:33:53.863Z,4.03
2018-07-27T17:36:22.541Z,4.20
2018-07-27T17:38:51.483Z,5.73
2018-07-27T17:41:20.573Z,7.97
2018-07-27T17:43:50.030Z,3.40
2018-07-27T17:46:19.181Z,3.70
2018-07-27T17:48:48.586Z,4.20
2018-07-27T17:51:17.997Z,3.57
2018-07-27T17:53:46.869Z,4.23
2018-07-27T17:56:16.223Z,5.77
2018-07-27T17:58:45.477Z,4.90
2018-07-27T18:01:14.285Z,5.00
2018-07-27T18:03:43.302Z,4.20
2018-07-27T18:06:12.353Z,4.30
2018-07-27T18:08:41.453Z,4.60
2018-07-27T18:11:10.398Z,4.70
2018-07-27T18:13:39.585Z,4.30
2018-07-27T18:16:09.089Z,4.30
2018-07-27T18:18:37.935Z,3.37
2018-07-27T18:21:06.985Z,3.27
2018-07-27T18:23:36.386Z,3.50
2018-07-27T18:26:06.014Z,4.33
2018-07-27T18:28:35.058Z,7.60
2018-07-27T18:31:04.129Z,4.43
2018-07-27T18:33:33.270Z,4.17
2018-07-27T18:36:02.684Z,5.33
2018-07-27T18:38:31.827Z,6.37
2018-07-27T18:41:00.925Z,5.13
2018-07-27T18:43:30.015Z,4.97
2018-07-27T18:45:59.114Z,4.93
2018-07-27T18:48:28.569Z,6.70
2018-07-27T18:50:57.898Z,10.23
2018-07-27T18:53:26.806Z,7.93
2018-07-27T18:55:55.911Z,5.13
2018-07-27T18:58:24.853Z,6.03
2018-07-27T19:00:54.097Z,6.00
2018-07-27T19:03:23.254Z,6.67
2018-07-27T19:05:52.291Z,10.23
2018-07-27T19:08:21.705Z,6.90
2018-07-27T19:10:50.894Z,8.80
2018-07-27T19:13:19.981Z,5.53
2018-07-27T19:15:48.844Z,5.57
2018-07-27T19:18:17.749Z,6.93
2018-07-27T19:20:46.867Z,6.10
2018-07-27T19:23:15.971Z,5.63
2018-07-27T19:25:45.191Z,5.70
2018-07-27T19:28:14.155Z,10.10
2018-07-27T19:30:43.248Z,6.40
2018-07-27T19:33:12.697Z,5.37
2018-07-27T19:35:42.613Z,5.33
2018-07-27T19:38:11.757Z,7.33
2018-07-27T19:40:40.859Z,5.67
2018-07-27T19:43:10.280Z,6.23
2018-07-27T19:45:39.309Z,5.93
2018-07-27T19:48:08.809Z,8.37
2018-07-27T19:50:38.049Z,6.90
2018-07-27T19:53:07.510Z,5.80
2018-07-27T19:55:37.017Z,6.07
2018-07-27T19:58:06.169Z,7.67
2018-07-27T20:00:36.438Z,6.87
2018-07-27T20:03:05.590Z,13.27
2018-07-27T20:05:34.683Z,8.73
2018-07-27T20:08:03.773Z,19.23
2018-07-27T20:10:32.882Z,7.40
2018-07-27T20:13:02.047Z,9.67
2018-07-27T20:15:31.062Z,7.90
2018-07-27T20:18:00.162Z,7.00
2018-07-27T20:20:29.782Z,7.13
2018-07-27T20:22:58.962Z,9.90
2018-07-27T20:25:27.854Z,7.40
2018-07-27T20:27:56.949Z,7.58
2018-07-27T20:30:26.201Z,11.53
2018-07-27T20:32:55.141Z,7.05
2018-07-27T20:35:24.221Z,7.80
2018-07-27T20:37:53.339Z,10.90
2018-07-27T20:40:22.433Z,9.50
2018-07-27T20:42:51.273Z,7.92
2018-07-27T20:45:19.761Z,7.83
2018-07-27T20:47:49.139Z,8.38
2018-07-27T20:50:18.393Z,7.45
2018-07-27T20:52:47.691Z,6.97
2018-07-27T20:55:16.601Z,7.65
2018-07-27T20:57:45.681Z,10.28
2018-07-27T21:00:15.211Z,10.00
2018-07-27T21:02:44.958Z,7.65
2018-07-27T21:05:15.343Z,7.10
2018-07-27T21:07:44.244Z,10.25
2018-07-27T21:10:13.689Z,7.20
2018-07-27T21:12:43.193Z,10.30
2018-07-27T21:15:12.225Z,6.97
2018-07-27T21:17:41.186Z,9.80
2018-07-27T21:20:10.481Z,9.98
2018-07-27T21:22:39.829Z,8.43
2018-07-27T21:25:09.377Z,7.75
2018-07-27T21:27:38.529Z,8.13
2018-07-27T21:30:07.622Z,7.60
2018-07-27T21:32:36.706Z,8.30
2018-07-27T21:35:05.801Z,7.50
2018-07-27T21:37:34.910Z,8.35
2018-07-27T21:40:04.322Z,12.88
2018-07-27T21:42:33.907Z,7.72
2018-07-27T21:45:03.014Z,9.83
2018-07-27T21:47:32.103Z,7.15
2018-07-27T21:50:00.926Z,9.20
2018-07-27T21:52:30.251Z,8.03
2018-07-27T21:54:59.449Z,7.50
2018-07-27T21:57:28.596Z,9.90
2018-07-27T21:59:57.949Z,11.78
2018-07-27T22:02:27.086Z,15.00
2018-07-27T22:04:56.209Z,7.80
2018-07-27T22:07:25.643Z,8.58
2018-07-27T22:09:54.795Z,8.38
2018-07-27T22:12:23.878Z,9.33
2018-07-27T22:14:52.727Z,7.50
2018-07-27T22:17:22.030Z,10.15
2018-07-27T22:19:50.889Z,8.53
2018-07-27T22:22:20.261Z,8.10
2018-07-27T22:24:49.365Z,8.05
2018-07-27T22:27:18.458Z,7.72
2018-07-27T22:29:47.558Z,9.43
2018-07-27T22:32:16.979Z,7.42
2018-07-27T22:34:46.157Z,8.95
2018-07-27T22:37:15.664Z,7.05
2018-07-27T22:39:44.750Z,8.45
2018-07-27T22:42:13.565Z,8.55
2018-07-27T22:44:42.538Z,6.90
2018-07-27T22:47:11.646Z,6.65
2018-07-27T22:49:41.096Z,12.00
2018-07-27T22:52:10.238Z,6.60
2018-07-27T22:54:39.321Z,6.83
2018-07-27T22:57:08.434Z,7.67
2018-07-27T22:59:37.882Z,6.22
2018-07-27T23:02:06.781Z,6.20
2018-07-27T23:04:35.717Z,6.25
2018-07-27T23:07:04.862Z,5.53
2018-07-27T23:09:33.898Z,6.60
2018-07-27T23:12:03.362Z,7.10
2018-07-27T23:14:32.871Z,6.78
2018-07-27T23:17:02.017Z,6.97
2018-07-27T23:19:31.114Z,6.50
2018-07-27T23:22:00.209Z,6.83
2018-07-27T23:24:29.146Z,6.58
2018-07-27T23:26:58.429Z,6.35
2018-07-27T23:29:27.496Z,6.37
2018-07-27T23:31:56.595Z,6.37
2018-07-27T23:34:26.050Z,11.08
2018-07-27T23:36:55.203Z,6.70
2018-07-27T23:39:24.286Z,5.92
2018-07-27T23:41:53.697Z,8.55
2018-07-27T23:44:22.886Z,7.60
2018-07-27T23:46:51.986Z,8.38
2018-07-27T23:49:20.788Z,6.30
2018-07-27T23:51:49.761Z,7.15
2018-07-27T23:54:18.863Z,7.40
2018-07-27T23:56:47.960Z,6.05
2018-07-27T23:59:17.097Z,6.65
